sensor_id;sensor_type;location;lat;lon;timestamp;pressure;altitude;pressure_sealevel;temperature;humidity
49030;BME280;43337;52.070;4.508;2024-02-15T00:00:20;101783.47;;;11.38;100.00
49030;BME280;43337;52.070;4.508;2024-02-15T00:02:47;101782.78;;;11.31;100.00
49030;BME280;43337;52.070;4.508;2024-02-15T00:05:12;101798.38;;;11.39;100.00
49030;BME280;43337;52.070;4.508;2024-02-15T00:07:40;101792.25;;;11.37;100.00
49030;BME280;43337;52.070;4.508;2024-02-15T00:10:05;101784.34;;;11.37;100.00
49030;BME280;43337;52.070;4.508;2024-02-15T00:12:31;101784.34;;;11.37;100.00
49030;BME280;43337;52.070;4.508;2024-02-15T00:14:57;101775.81;;;11.29;100.00
49030;BME280;43337;52.070;4.508;2024-02-15T00:17:24;101798.31;;;11.40;100.00
49030;BME280;43337;52.070;4.508;2024-02-15T00:19:52;101783.41;;;11.39;100.00
49030;BME280;43337;52.070;4.508;2024-02-15T00:22:17;101777.22;;;11.40;100.00
49030;BME280;43337;52.070;4.508;2024-02-15T00:24:44;101785.88;;;11.44;100.00
49030;BME280;43337;52.070;4.508;2024-02-15T00:27:10;101758.19;;;11.31;100.00
49030;BME280;43337;52.070;4.508;2024-02-15T00:29:36;101764.88;;;11.41;100.00
49030;BME280;43337;52.070;4.508;2024-02-15T00:32:02;101778.66;;;11.51;100.00
49030;BME280;43337;52.070;4.508;2024-02-15T00:34:28;101764.81;;;11.44;100.00
49030;BME280;43337;52.070;4.508;2024-02-15T00:36:54;101763.88;;;11.45;100.00
49030;BME280;43337;52.070;4.508;2024-02-15T00:39:19;101751.06;;;11.34;100.00
49030;BME280;43337;52.070;4.508;2024-02-15T00:41:45;101781.31;;;11.51;100.00
49030;BME280;43337;52.070;4.508;2024-02-15T00:44:11;101741.59;;;11.27;100.00
49030;BME280;43337;52.070;4.508;2024-02-15T00:46:37;101772.63;;;11.47;100.00
49030;BME280;43337;52.070;4.508;2024-02-15T00:49:03;101763.78;;;11.48;100.00
49030;BME280;43337;52.070;4.508;2024-02-15T00:51:31;101732.69;;;11.31;100.00
49030;BME280;43337;52.070;4.508;2024-02-15T00:53:57;101757.09;;;11.38;100.00
49030;BME280;43337;52.070;4.508;2024-02-15T00:56:22;101751.06;;;11.34;100.00
49030;BME280;43337;52.070;4.508;2024-02-15T00:58:49;101757.19;;;11.35;100.00
49030;BME280;43337;52.070;4.508;2024-02-15T01:01:15;101762.41;;;11.36;100.00
49030;BME280;43337;52.070;4.508;2024-02-15T01:03:40;101752.78;;;11.34;100.00
49030;BME280;43337;52.070;4.508;2024-02-15T01:06:06;101750.13;;;11.35;100.00
49030;BME280;43337;52.070;4.508;2024-02-15T01:08:32;101755.25;;;11.40;100.00
49030;BME280;43337;52.070;4.508;2024-02-15T01:10:57;101761.25;;;11.45;100.00
49030;BME280;43337;52.070;4.508;2024-02-15T01:13:23;101755.03;;;11.47;100.00
49030;BME280;43337;52.070;4.508;2024-02-15T01:15:48;101746.41;;;11.42;100.00
49030;BME280;43337;52.070;4.508;2024-02-15T01:18:14;101742.91;;;11.42;100.00
49030;BME280;43337;52.070;4.508;2024-02-15T01:20:39;101725.69;;;11.30;100.00
49030;BME280;43337;52.070;4.508;2024-02-15T01:23:05;101747.28;;;11.41;100.00
49030;BME280;43337;52.070;4.508;2024-02-15T01:25:33;101753.25;;;11.48;100.00
49030;BME280;43337;52.070;4.508;2024-02-15T01:27:58;101729.91;;;11.36;100.00
49030;BME280;43337;52.070;4.508;2024-02-15T01:30:24;101743.69;;;11.44;100.00
49030;BME280;43337;52.070;4.508;2024-02-15T01:32:49;101727.25;;;11.36;100.00
49030;BME280;43337;52.070;4.508;2024-02-15T01:35:14;101741.03;;;11.45;100.00
49030;BME280;43337;52.070;4.508;2024-02-15T01:37:40;101725.53;;;11.35;100.00
49030;BME280;43337;52.070;4.508;2024-02-15T01:40:06;101711.78;;;11.25;100.00
49030;BME280;43337;52.070;4.508;2024-02-15T01:42:32;101723.84;;;11.32;100.00
49030;BME280;43337;52.070;4.508;2024-02-15T01:44:57;101723.00;;;11.32;100.00
49030;BME280;43337;52.070;4.508;2024-02-15T01:47:23;101717.81;;;11.29;100.00
49030;BME280;43337;52.070;4.508;2024-02-15T01:49:49;101736.88;;;11.37;100.00
49030;BME280;43337;52.070;4.508;2024-02-15T01:52:17;101730.81;;;11.35;100.00
49030;BME280;43337;52.070;4.508;2024-02-15T01:54:43;101700.69;;;11.14;100.00
49030;BME280;43337;52.070;4.508;2024-02-15T01:57:11;101713.63;;;11.23;100.00
49030;BME280;43337;52.070;4.508;2024-02-15T01:59:36;101724.16;;;11.23;100.00
49030;BME280;43337;52.070;4.508;2024-02-15T02:02:02;101726.78;;;11.23;100.00
49030;BME280;43337;52.070;4.508;2024-02-15T02:04:29;101701.69;;;11.11;100.00
49030;BME280;43337;52.070;4.508;2024-02-15T02:06:57;101718.13;;;11.19;100.00
49030;BME280;43337;52.070;4.508;2024-02-15T02:09:23;101719.06;;;11.17;100.00
49030;BME280;43337;52.070;4.508;2024-02-15T02:11:49;101703.56;;;11.06;100.00
49030;BME280;43337;52.070;4.508;2024-02-15T02:14:16;101721.75;;;11.15;100.00
49030;BME280;43337;52.070;4.508;2024-02-15T02:16:41;101725.28;;;11.14;100.00
49030;BME280;43337;52.070;4.508;2024-02-15T02:19:07;101702.91;;;10.99;100.00
49030;BME280;43337;52.070;4.508;2024-02-15T02:21:35;101700.22;;;11.01;100.00
49030;BME280;43337;52.070;4.508;2024-02-15T02:24:02;101714.75;;;11.14;100.00
49030;BME280;43337;52.070;4.508;2024-02-15T02:26:29;101714.75;;;11.14;100.00
49030;BME280;43337;52.070;4.508;2024-02-15T02:28:54;101697.41;;;11.07;100.00
49030;BME280;43337;52.070;4.508;2024-02-15T02:31:20;101687.66;;;11.09;100.00
49030;BME280;43337;52.070;4.508;2024-02-15T02:33:53;101709.22;;;11.22;100.00
49030;BME280;43337;52.070;4.508;2024-02-15T02:36:19;101662.47;;;11.00;100.00
49030;BME280;43337;52.070;4.508;2024-02-15T02:38:45;101705.59;;;11.26;100.00
49030;BME280;43337;52.070;4.508;2024-02-15T02:41:15;101696.09;;;11.20;100.00
49030;BME280;43337;52.070;4.508;2024-02-15T02:43:41;101691.66;;;11.22;100.00
49030;BME280;43337;52.070;4.508;2024-02-15T02:46:11;101677.09;;;11.11;100.00
49030;BME280;43337;52.070;4.508;2024-02-15T02:48:37;101672.63;;;11.13;100.00
49030;BME280;43337;52.070;4.508;2024-02-15T02:51:05;101677.81;;;11.16;100.00
49030;BME280;43337;52.070;4.508;2024-02-15T02:53:31;101705.31;;;11.35;100.00
49030;BME280;43337;52.070;4.508;2024-02-15T02:55:56;101702.69;;;11.35;100.00
49030;BME280;43337;52.070;4.508;2024-02-15T02:58:22;101668.91;;;11.18;100.00
49030;BME280;43337;52.070;4.508;2024-02-15T03:00:51;101696.63;;;11.32;100.00
49030;BME280;43337;52.070;4.508;2024-02-15T03:03:17;101698.31;;;11.34;100.00
49030;BME280;43337;52.070;4.508;2024-02-15T03:05:44;101691.28;;;11.35;100.00
49030;BME280;43337;52.070;4.508;2024-02-15T03:08:12;101678.38;;;11.25;100.00
49030;BME280;43337;52.070;4.508;2024-02-15T03:10:43;101682.59;;;11.31;100.00
49030;BME280;43337;52.070;4.508;2024-02-15T03:13:08;101698.09;;;11.40;100.00
49030;BME280;43337;52.070;4.508;2024-02-15T03:15:37;101671.53;;;11.20;100.00
49030;BME280;43337;52.070;4.508;2024-02-15T03:18:07;101670.66;;;11.19;100.00
49030;BME280;43337;52.070;4.508;2024-02-15T03:20:43;101673.31;;;11.19;100.00
49030;BME280;43337;52.070;4.508;2024-02-15T03:23:08;101669.81;;;11.19;100.00
49030;BME280;43337;52.070;4.508;2024-02-15T03:25:34;101658.44;;;11.17;100.00
49030;BME280;43337;52.070;4.508;2024-02-15T03:28:05;101693.16;;;11.31;100.00
49030;BME280;43337;52.070;4.508;2024-02-15T03:30:36;101686.16;;;11.30;100.00
49030;BME280;43337;52.070;4.508;2024-02-15T03:33:02;101673.94;;;11.26;100.00
49030;BME280;43337;52.070;4.508;2024-02-15T03:35:31;101676.72;;;11.23;100.00
49030;BME280;43337;52.070;4.508;2024-02-15T03:37:57;101672.53;;;11.16;100.00
49030;BME280;43337;52.070;4.508;2024-02-15T03:40:23;101699.22;;;11.33;100.00
49030;BME280;43337;52.070;4.508;2024-02-15T03:42:56;101681.22;;;11.19;100.00
49030;BME280;43337;52.070;4.508;2024-02-15T03:45:22;101695.78;;;11.31;100.00
49030;BME280;43337;52.070;4.508;2024-02-15T03:47:50;101680.06;;;11.28;100.00
49030;BME280;43337;52.070;4.508;2024-02-15T03:50:15;101650.63;;;11.14;100.00
49030;BME280;43337;52.070;4.508;2024-02-15T03:52:41;101660.13;;;11.19;100.00
49030;BME280;43337;52.070;4.508;2024-02-15T03:55:06;101667.19;;;11.19;100.00
49030;BME280;43337;52.070;4.508;2024-02-15T03:57:38;101672.16;;;11.28;100.00
49030;BME280;43337;52.070;4.508;2024-02-15T04:00:06;101671.31;;;11.26;100.00
49030;BME280;43337;52.070;4.508;2024-02-15T04:02:33;101666.94;;;11.27;100.00
49030;BME280;43337;52.070;4.508;2024-02-15T04:05:01;101655.00;;;11.15;100.00
49030;BME280;43337;52.070;4.508;2024-02-15T04:07:30;101662.66;;;11.22;100.00
49030;BME280;43337;52.070;4.508;2024-02-15T04:09:56;101667.03;;;11.23;100.00
49030;BME280;43337;52.070;4.508;2024-02-15T04:12:21;101680.13;;;11.25;100.00
49030;BME280;43337;52.070;4.508;2024-02-15T04:14:47;101671.38;;;11.24;100.00
49030;BME280;43337;52.070;4.508;2024-02-15T04:17:14;101658.13;;;11.26;100.00
49030;BME280;43337;52.070;4.508;2024-02-15T04:19:43;101662.53;;;11.25;100.00
49030;BME280;43337;52.070;4.508;2024-02-15T04:22:09;101671.38;;;11.24;100.00
49030;BME280;43337;52.070;4.508;2024-02-15T04:24:35;101663.53;;;11.23;100.00
49030;BME280;43337;52.070;4.508;2024-02-15T04:27:05;101665.25;;;11.24;100.00
49030;BME280;43337;52.070;4.508;2024-02-15T04:29:33;101669.66;;;11.23;100.00
49030;BME280;43337;52.070;4.508;2024-02-15T04:31:58;101662.63;;;11.24;100.00
49030;BME280;43337;52.070;4.508;2024-02-15T04:34:23;101652.41;;;11.13;100.00
49030;BME280;43337;52.070;4.508;2024-02-15T04:36:49;101673.22;;;11.22;100.00
49030;BME280;43337;52.070;4.508;2024-02-15T04:39:18;101681.97;;;11.23;100.00
49030;BME280;43337;52.070;4.508;2024-02-15T04:41:52;101682.84;;;11.23;100.00
49030;BME280;43337;52.070;4.508;2024-02-15T04:44:18;101686.41;;;11.22;100.00
49030;BME280;43337;52.070;4.508;2024-02-15T04:46:48;101676.75;;;11.21;100.00
49030;BME280;43337;52.070;4.508;2024-02-15T04:49:15;101683.75;;;11.22;100.00
49030;BME280;43337;52.070;4.508;2024-02-15T04:51:40;101675.84;;;11.22;100.00
49030;BME280;43337;52.070;4.508;2024-02-15T04:54:09;101659.22;;;11.20;100.00
49030;BME280;43337;52.070;4.508;2024-02-15T04:56:38;101667.81;;;11.25;100.00
49030;BME280;43337;52.070;4.508;2024-02-15T04:59:05;101625.25;;;11.11;100.00
49030;BME280;43337;52.070;4.508;2024-02-15T05:01:34;101633.69;;;11.22;100.00
49030;BME280;43337;52.070;4.508;2024-02-15T05:04:01;101626.63;;;11.23;100.00
49030;BME280;43337;52.070;4.508;2024-02-15T05:06:31;101609.94;;;11.22;100.00
49030;BME280;43337;52.070;4.508;2024-02-15T05:08:57;101602.03;;;11.22;100.00
49030;BME280;43337;52.070;4.508;2024-02-15T05:11:25;101602.94;;;11.21;100.00
49030;BME280;43337;52.070;4.508;2024-02-15T05:13:51;101608.28;;;11.20;100.00
49030;BME280;43337;52.070;4.508;2024-02-15T05:16:16;101596.25;;;11.11;100.00
49030;BME280;43337;52.070;4.508;2024-02-15T05:18:42;101627.56;;;11.20;100.00
49030;BME280;43337;52.070;4.508;2024-02-15T05:21:07;101623.25;;;11.18;100.00
49030;BME280;43337;52.070;4.508;2024-02-15T05:23:36;101619.66;;;11.20;100.00
49030;BME280;43337;52.070;4.508;2024-02-15T05:26:03;101607.59;;;11.13;100.00
49030;BME280;43337;52.070;4.508;2024-02-15T05:28:29;101599.78;;;11.10;100.00
49030;BME280;43337;52.070;4.508;2024-02-15T05:31:14;101620.53;;;11.21;100.00
49030;BME280;43337;52.070;4.508;2024-02-15T05:33:49;101609.97;;;11.21;100.00
49030;BME280;43337;52.070;4.508;2024-02-15T05:36:16;101606.59;;;11.17;100.00
49030;BME280;43337;52.070;4.508;2024-02-15T05:38:41;101616.13;;;11.21;100.00
49030;BME280;43337;52.070;4.508;2024-02-15T05:41:10;101609.06;;;11.22;100.00
49030;BME280;43337;52.070;4.508;2024-02-15T05:43:36;101611.84;;;11.17;100.00
49030;BME280;43337;52.070;4.508;2024-02-15T05:46:05;101612.59;;;11.22;100.00
49030;BME280;43337;52.070;4.508;2024-02-15T05:48:32;101597.97;;;11.12;100.00
49030;BME280;43337;52.070;4.508;2024-02-15T05:51:00;101587.44;;;11.12;100.00
49030;BME280;43337;52.070;4.508;2024-02-15T05:53:26;101582.31;;;11.08;100.00
49030;BME280;43337;52.070;4.508;2024-02-15T05:55:52;101605.53;;;11.23;100.00
49030;BME280;43337;52.070;4.508;2024-02-15T05:58:17;101575.28;;;11.08;100.00
49030;BME280;43337;52.070;4.508;2024-02-15T06:00:43;101570.78;;;11.10;100.00
49030;BME280;43337;52.070;4.508;2024-02-15T06:03:12;101595.84;;;11.23;100.00
49030;BME280;43337;52.070;4.508;2024-02-15T06:05:38;101601.97;;;11.24;100.00
49030;BME280;43337;52.070;4.508;2024-02-15T06:08:03;101584.88;;;11.11;100.00
49030;BME280;43337;52.070;4.508;2024-02-15T06:10:29;101578.59;;;11.13;100.00
49030;BME280;43337;52.070;4.508;2024-02-15T06:12:56;101574.25;;;11.12;100.00
49030;BME280;43337;52.070;4.508;2024-02-15T06:15:22;101570.59;;;11.16;100.00
49030;BME280;43337;52.070;4.508;2024-02-15T06:17:48;101594.88;;;11.26;100.00
49030;BME280;43337;52.070;4.508;2024-02-15T06:20:14;101579.44;;;11.15;100.00
49030;BME280;43337;52.070;4.508;2024-02-15T06:22:40;101586.00;;;11.29;100.00
49030;BME280;43337;52.070;4.508;2024-02-15T06:25:06;101590.44;;;11.28;100.00
49030;BME280;43337;52.070;4.508;2024-02-15T06:27:31;101597.41;;;11.29;100.00
49030;BME280;43337;52.070;4.508;2024-02-15T06:29:57;101591.38;;;11.25;100.00
49030;BME280;43337;52.070;4.508;2024-02-15T06:32:41;101592.22;;;11.26;100.00
49030;BME280;43337;52.070;4.508;2024-02-15T06:35:25;101592.19;;;11.28;100.00
49030;BME280;43337;52.070;4.508;2024-02-15T06:38:09;101594.88;;;11.26;100.00
49030;BME280;43337;52.070;4.508;2024-02-15T06:40:53;101594.00;;;11.25;100.00
49030;BME280;43337;52.070;4.508;2024-02-15T06:43:19;101610.66;;;11.28;100.00
49030;BME280;43337;52.070;4.508;2024-02-15T06:45:44;101608.13;;;11.24;100.00
49030;BME280;43337;52.070;4.508;2024-02-15T06:48:12;101605.47;;;11.24;100.00
49030;BME280;43337;52.070;4.508;2024-02-15T06:50:37;101595.63;;;11.30;100.00
49030;BME280;43337;52.070;4.508;2024-02-15T06:53:03;101592.13;;;11.29;100.00
49030;BME280;43337;52.070;4.508;2024-02-15T06:55:28;101578.25;;;11.24;100.00
49030;BME280;43337;52.070;4.508;2024-02-15T06:57:53;101570.25;;;11.27;100.00
49030;BME280;43337;52.070;4.508;2024-02-15T07:00:20;101599.16;;;11.30;100.00
49030;BME280;43337;52.070;4.508;2024-02-15T07:02:45;101594.00;;;11.25;100.00
49030;BME280;43337;52.070;4.508;2024-02-15T07:05:12;101613.31;;;11.26;100.00
49030;BME280;43337;52.070;4.508;2024-02-15T07:07:38;101622.00;;;11.30;100.00
49030;BME280;43337;52.070;4.508;2024-02-15T07:10:05;101626.38;;;11.31;100.00
49030;BME280;43337;52.070;4.508;2024-02-15T07:12:31;101622.91;;;11.29;100.00
49030;BME280;43337;52.070;4.508;2024-02-15T07:14:57;101611.56;;;11.27;100.00
49030;BME280;43337;52.070;4.508;2024-02-15T07:17:23;101609.94;;;11.22;100.00
49030;BME280;43337;52.070;4.508;2024-02-15T07:19:48;101629.88;;;11.31;100.00
49030;BME280;43337;52.070;4.508;2024-02-15T07:22:18;101618.50;;;11.29;100.00
49030;BME280;43337;52.070;4.508;2024-02-15T07:24:43;101608.78;;;11.31;100.00
49030;BME280;43337;52.070;4.508;2024-02-15T07:27:08;101616.63;;;11.33;100.00
49030;BME280;43337;52.070;4.508;2024-02-15T07:29:35;101601.03;;;11.27;100.00
49030;BME280;43337;52.070;4.508;2024-02-15T07:32:03;101606.09;;;11.33;100.00
49030;BME280;43337;52.070;4.508;2024-02-15T07:34:30;101599.94;;;11.32;100.00
49030;BME280;43337;52.070;4.508;2024-02-15T07:36:55;101600.88;;;11.31;100.00
49030;BME280;43337;52.070;4.508;2024-02-15T07:39:24;101602.53;;;11.34;100.00
49030;BME280;43337;52.070;4.508;2024-02-15T07:41:53;101591.97;;;11.34;100.00
49030;BME280;43337;52.070;4.508;2024-02-15T07:44:18;101597.25;;;11.34;100.00
49030;BME280;43337;52.070;4.508;2024-02-15T07:46:44;101597.25;;;11.34;100.00
49030;BME280;43337;52.070;4.508;2024-02-15T07:49:10;101593.75;;;11.33;100.00
49030;BME280;43337;52.070;4.508;2024-02-15T07:51:36;101597.22;;;11.35;100.00
49030;BME280;43337;52.070;4.508;2024-02-15T07:54:02;101593.72;;;11.35;100.00
49030;BME280;43337;52.070;4.508;2024-02-15T07:56:28;101584.03;;;11.35;100.00
49030;BME280;43337;52.070;4.508;2024-02-15T07:58:54;101582.63;;;11.25;100.00
49030;BME280;43337;52.070;4.508;2024-02-15T08:01:19;101593.66;;;11.36;100.00
49030;BME280;43337;52.070;4.508;2024-02-15T08:03:48;101579.69;;;11.34;100.00
49030;BME280;43337;52.070;4.508;2024-02-15T08:06:14;101582.19;;;11.37;100.00
49030;BME280;43337;52.070;4.508;2024-02-15T08:08:41;101591.00;;;11.38;100.00
49030;BME280;43337;52.070;4.508;2024-02-15T08:11:08;101572.81;;;11.29;100.00
49030;BME280;43337;52.070;4.508;2024-02-15T08:13:52;101579.88;;;11.28;100.00
49030;BME280;43337;52.070;4.508;2024-02-15T08:16:20;101572.03;;;11.27;100.00
49030;BME280;43337;52.070;4.508;2024-02-15T08:18:49;101583.97;;;11.37;100.00
49030;BME280;43337;52.070;4.508;2024-02-15T08:21:27;101597.13;;;11.38;100.00
49030;BME280;43337;52.070;4.508;2024-02-15T08:24:02;101577.31;;;11.27;100.00
49030;BME280;43337;52.070;4.508;2024-02-15T08:26:37;101564.16;;;11.25;100.00
49030;BME280;43337;52.070;4.508;2024-02-15T08:29:03;101594.50;;;11.38;100.00
49030;BME280;43337;52.070;4.508;2024-02-15T08:31:29;101579.56;;;11.37;100.00
49030;BME280;43337;52.070;4.508;2024-02-15T08:33:59;101588.28;;;11.39;100.00
49030;BME280;43337;52.070;4.508;2024-02-15T08:36:25;101583.19;;;11.35;100.00
49030;BME280;43337;52.070;4.508;2024-02-15T08:38:51;101588.22;;;11.41;100.00
49030;BME280;43337;52.070;4.508;2024-02-15T08:41:16;101590.88;;;11.41;100.00
49030;BME280;43337;52.070;4.508;2024-02-15T08:43:46;101572.63;;;11.35;100.00
49030;BME280;43337;52.070;4.508;2024-02-15T08:46:13;101572.31;;;11.44;100.00
49030;BME280;43337;52.070;4.508;2024-02-15T08:48:39;101577.53;;;11.45;100.00
49030;BME280;43337;52.070;4.508;2024-02-15T08:51:04;101581.91;;;11.46;100.00
49030;BME280;43337;52.070;4.508;2024-02-15T08:53:31;101584.38;;;11.51;100.00
49030;BME280;43337;52.070;4.508;2024-02-15T08:55:57;101585.22;;;11.52;100.00
49030;BME280;43337;52.070;4.508;2024-02-15T08:58:22;101578.19;;;11.52;100.00
49030;BME280;43337;52.070;4.508;2024-02-15T09:00:48;101573.81;;;11.51;100.00
49030;BME280;43337;52.070;4.508;2024-02-15T09:03:13;101560.81;;;11.46;100.00
49030;BME280;43337;52.070;4.508;2024-02-15T09:05:39;101566.72;;;11.53;100.00
49030;BME280;43337;52.070;4.508;2024-02-15T09:08:06;101563.19;;;11.54;100.00
49030;BME280;43337;52.070;4.508;2024-02-15T09:10:31;101543.28;;;11.45;100.00
49030;BME280;43337;52.070;4.508;2024-02-15T09:12:57;101563.97;;;11.56;100.00
49030;BME280;43337;52.070;4.508;2024-02-15T09:15:22;101546.69;;;11.47;100.00
49030;BME280;43337;52.070;4.508;2024-02-15T09:17:48;101544.88;;;11.49;100.00
49030;BME280;43337;52.070;4.508;2024-02-15T09:20:15;101553.66;;;11.50;100.00
49030;BME280;43337;52.070;4.508;2024-02-15T09:22:47;101550.03;;;11.53;100.00
49030;BME280;43337;52.070;4.508;2024-02-15T09:25:13;101566.47;;;11.61;100.00
49030;BME280;43337;52.070;4.508;2024-02-15T09:27:42;101547.19;;;11.59;100.00
49030;BME280;43337;52.070;4.508;2024-02-15T09:30:09;101562.63;;;11.69;100.00
49030;BME280;43337;52.070;4.508;2024-02-15T09:32:36;101574.63;;;11.78;100.00
49030;BME280;43337;52.070;4.508;2024-02-15T09:35:01;101570.09;;;11.82;100.00
49030;BME280;43337;52.070;4.508;2024-02-15T09:37:27;101561.34;;;11.81;100.00
49030;BME280;43337;52.070;4.508;2024-02-15T09:39:56;101568.19;;;11.87;100.00
49030;BME280;43337;52.070;4.508;2024-02-15T09:42:21;101552.66;;;11.78;100.00
49030;BME280;43337;52.070;4.508;2024-02-15T09:44:47;101571.69;;;11.87;100.00
49030;BME280;43337;52.070;4.508;2024-02-15T09:47:13;101570.72;;;11.90;100.00
49030;BME280;43337;52.070;4.508;2024-02-15T09:49:40;101563.66;;;11.90;100.00
49030;BME280;43337;52.070;4.508;2024-02-15T09:52:07;101537.63;;;11.80;100.00
49030;BME280;43337;52.070;4.508;2024-02-15T09:54:41;101545.44;;;11.83;100.00
49030;BME280;43337;52.070;4.508;2024-02-15T09:57:10;101546.97;;;11.90;100.00
49030;BME280;43337;52.070;4.508;2024-02-15T09:59:37;101571.78;;;12.09;100.00
49030;BME280;43337;52.070;4.508;2024-02-15T10:02:03;101555.53;;;11.96;100.00
49030;BME280;43337;52.070;4.508;2024-02-15T10:04:29;101584.03;;;12.10;100.00
49030;BME280;43337;52.070;4.508;2024-02-15T10:06:54;101556.47;;;11.95;100.00
49030;BME280;43337;52.070;4.508;2024-02-15T10:09:23;101569.31;;;12.05;100.00
49030;BME280;43337;52.070;4.508;2024-02-15T10:11:54;101578.53;;;12.16;100.00
49030;BME280;43337;52.070;4.508;2024-02-15T10:14:21;101544.91;;;11.98;100.00
49030;BME280;43337;52.070;4.508;2024-02-15T10:16:47;101550.16;;;12.00;100.00
49030;BME280;43337;52.070;4.508;2024-02-15T10:19:15;101559.69;;;12.04;100.00
49030;BME280;43337;52.070;4.508;2024-02-15T10:21:41;101570.00;;;12.10;100.00
49030;BME280;43337;52.070;4.508;2024-02-15T10:24:07;101569.94;;;12.11;100.00
49030;BME280;43337;52.070;4.508;2024-02-15T10:26:33;101561.22;;;12.09;100.00
49030;BME280;43337;52.070;4.508;2024-02-15T10:29:10;101590.31;;;12.31;100.00
49030;BME280;43337;52.070;4.508;2024-02-15T10:31:37;101586.56;;;12.37;100.00
49030;BME280;43337;52.070;4.508;2024-02-15T10:34:05;101577.50;;;12.44;100.00
49030;BME280;43337;52.070;4.508;2024-02-15T10:36:30;101586.91;;;12.51;100.00
49030;BME280;43337;52.070;4.508;2024-02-15T10:39:15;101576.06;;;12.59;100.00
49030;BME280;43337;52.070;4.508;2024-02-15T10:41:52;101579.50;;;12.61;100.00
49030;BME280;43337;52.070;4.508;2024-02-15T10:44:21;101548.91;;;12.55;100.00
49030;BME280;43337;52.070;4.508;2024-02-15T10:46:49;101554.69;;;12.65;100.00
49030;BME280;43337;52.070;4.508;2024-02-15T10:49:20;101576.81;;;12.84;100.00
49030;BME280;43337;52.070;4.508;2024-02-15T10:51:50;101581.91;;;12.89;100.00
49030;BME280;43337;52.070;4.508;2024-02-15T10:55:08;101564.16;;;12.92;100.00
49030;BME280;43337;52.070;4.508;2024-02-15T10:57:10;101564.06;;;12.94;100.00
49030;BME280;43337;52.070;4.508;2024-02-15T10:59:38;101545.97;;;12.85;100.00
49030;BME280;43337;52.070;4.508;2024-02-15T11:04:52;101533.38;;;12.91;100.00
49030;BME280;43337;52.070;4.508;2024-02-15T11:07:25;101542.81;;;12.97;100.00
49030;BME280;43337;52.070;4.508;2024-02-15T11:09:56;101554.59;;;13.10;100.00
49030;BME280;43337;52.070;4.508;2024-02-15T11:12:22;101554.47;;;13.13;100.00
49030;BME280;43337;52.070;4.508;2024-02-15T11:14:49;101533.59;;;13.07;100.00
49030;BME280;43337;52.070;4.508;2024-02-15T11:20:08;101551.44;;;13.23;100.00
49030;BME280;43337;52.070;4.508;2024-02-15T11:22:35;101546.16;;;13.23;100.00
49030;BME280;43337;52.070;4.508;2024-02-15T11:25:05;101525.00;;;13.23;100.00
49030;BME280;43337;52.070;4.508;2024-02-15T11:27:36;101510.31;;;13.15;100.00
49030;BME280;43337;52.070;4.508;2024-02-15T11:30:04;101533.19;;;13.38;100.00
49030;BME280;43337;52.070;4.508;2024-02-15T11:32:48;101519.03;;;13.39;100.00
49030;BME280;43337;52.070;4.508;2024-02-15T11:35:19;101513.13;;;13.33;100.00
49030;BME280;43337;52.070;4.508;2024-02-15T11:37:51;101492.28;;;13.25;100.00
49030;BME280;43337;52.070;4.508;2024-02-15T11:40:59;101517.69;;;13.50;100.00
49030;BME280;43337;52.070;4.508;2024-02-15T11:46:08;101511.13;;;13.58;100.00
49030;BME280;43337;52.070;4.508;2024-02-15T11:48:36;101493.81;;;13.51;100.00
49030;BME280;43337;52.070;4.508;2024-02-15T11:51:04;101508.16;;;13.66;100.00
49030;BME280;43337;52.070;4.508;2024-02-15T11:53:31;101501.94;;;13.67;100.00
49030;BME280;43337;52.070;4.508;2024-02-15T11:56:00;101501.59;;;13.75;100.00
49030;BME280;43337;52.070;4.508;2024-02-15T11:58:26;101498.81;;;13.78;100.00
49030;BME280;43337;52.070;4.508;2024-02-15T12:01:11;101498.72;;;13.79;100.00
49030;BME280;43337;52.070;4.508;2024-02-15T12:03:55;101488.31;;;13.76;100.00
49030;BME280;43337;52.070;4.508;2024-02-15T12:06:39;101484.75;;;13.76;100.00
49030;BME280;43337;52.070;4.508;2024-02-15T12:09:23;101491.81;;;13.77;100.00
49030;BME280;43337;52.070;4.508;2024-02-15T12:12:09;101490.22;;;13.73;100.00
49030;BME280;43337;52.070;4.508;2024-02-15T12:15:03;101479.63;;;13.73;100.00
49030;BME280;43337;52.070;4.508;2024-02-15T12:17:47;101482.28;;;13.73;100.00
49030;BME280;43337;52.070;4.508;2024-02-15T12:20:32;101480.16;;;13.81;100.00
49030;BME280;43337;52.070;4.508;2024-02-15T12:22:57;101463.47;;;13.79;100.00
49030;BME280;43337;52.070;4.508;2024-02-15T12:25:25;101466.19;;;13.96;100.00
49030;BME280;43337;52.070;4.508;2024-02-15T12:27:56;101449.28;;;13.99;100.00
49030;BME280;43337;52.070;4.508;2024-02-15T12:30:22;101436.06;;;13.99;100.00
49030;BME280;43337;52.070;4.508;2024-02-15T12:32:49;101421.75;;;14.03;100.00
49030;BME280;43337;52.070;4.508;2024-02-15T12:35:19;101426.81;;;14.26;100.00
49030;BME280;43337;52.070;4.508;2024-02-15T12:38:01;101445.31;;;14.45;100.00
49030;BME280;43337;52.070;4.508;2024-02-15T12:40:33;101443.97;;;14.55;100.00
49030;BME280;43337;52.070;4.508;2024-02-15T12:42:59;101411.03;;;14.42;100.00
49030;BME280;43337;52.070;4.508;2024-02-15T12:45:31;101413.16;;;14.53;100.00
49030;BME280;43337;52.070;4.508;2024-02-15T12:47:57;101409.44;;;14.57;100.00
49030;BME280;43337;52.070;4.508;2024-02-15T12:50:27;101420.34;;;14.68;100.00
49030;BME280;43337;52.070;4.508;2024-02-15T12:52:53;101395.97;;;14.61;100.00